sensor_id;sensor_type;location;lat;lon;timestamp;temperature;humidity
25937;DHT22;13733;51.178;4.450;2023-06-22T00:02:18;21.70;99.90
25937;DHT22;13733;51.178;4.450;2023-06-22T00:04:44;21.70;99.90
25937;DHT22;13733;51.178;4.450;2023-06-22T00:07:10;21.60;99.90
25937;DHT22;13733;51.178;4.450;2023-06-22T00:09:35;21.60;99.90
25937;DHT22;13733;51.178;4.450;2023-06-22T00:12:02;21.60;99.90
25937;DHT22;13733;51.178;4.450;2023-06-22T00:14:28;21.60;99.90
25937;DHT22;13733;51.178;4.450;2023-06-22T00:16:53;21.60;99.90
25937;DHT22;13733;51.178;4.450;2023-06-22T00:19:23;21.50;99.90
25937;DHT22;13733;51.178;4.450;2023-06-22T00:21:52;21.50;99.90
25937;DHT22;13733;51.178;4.450;2023-06-22T00:24:21;21.50;99.90
25937;DHT22;13733;51.178;4.450;2023-06-22T00:26:48;21.40;99.90
25937;DHT22;13733;51.178;4.450;2023-06-22T00:29:16;21.50;99.90
25937;DHT22;13733;51.178;4.450;2023-06-22T00:31:42;21.40;99.90
25937;DHT22;13733;51.178;4.450;2023-06-22T00:34:08;21.40;99.90
25937;DHT22;13733;51.178;4.450;2023-06-22T00:36:36;21.30;99.90
25937;DHT22;13733;51.178;4.450;2023-06-22T00:39:02;21.30;99.90
25937;DHT22;13733;51.178;4.450;2023-06-22T00:41:29;21.20;99.90
25937;DHT22;13733;51.178;4.450;2023-06-22T00:43:55;21.20;99.90
25937;DHT22;13733;51.178;4.450;2023-06-22T00:46:21;21.10;99.90
25937;DHT22;13733;51.178;4.450;2023-06-22T00:48:48;21.10;99.90
25937;DHT22;13733;51.178;4.450;2023-06-22T00:51:14;21.00;99.90
25937;DHT22;13733;51.178;4.450;2023-06-22T00:53:41;21.00;99.90
25937;DHT22;13733;51.178;4.450;2023-06-22T00:56:10;20.90;99.90
25937;DHT22;13733;51.178;4.450;2023-06-22T00:58:38;20.90;99.90
25937;DHT22;13733;51.178;4.450;2023-06-22T01:01:08;20.80;99.90
25937;DHT22;13733;51.178;4.450;2023-06-22T01:03:33;20.80;99.90
25937;DHT22;13733;51.178;4.450;2023-06-22T01:06:12;20.80;99.90
25937;DHT22;13733;51.178;4.450;2023-06-22T01:08:53;20.70;99.90
25937;DHT22;13733;51.178;4.450;2023-06-22T01:11:28;20.70;99.90
25937;DHT22;13733;51.178;4.450;2023-06-22T01:14:15;20.70;99.90
25937;DHT22;13733;51.178;4.450;2023-06-22T01:16:44;20.70;99.90
25937;DHT22;13733;51.178;4.450;2023-06-22T01:19:35;20.80;99.90
25937;DHT22;13733;51.178;4.450;2023-06-22T01:22:03;20.70;99.90
25937;DHT22;13733;51.178;4.450;2023-06-22T01:29:43;20.70;99.90
25937;DHT22;13733;51.178;4.450;2023-06-22T01:32:10;20.60;99.90
25937;DHT22;13733;51.178;4.450;2023-06-22T01:34:38;20.60;99.90
25937;DHT22;13733;51.178;4.450;2023-06-22T01:37:06;20.50;99.90
25937;DHT22;13733;51.178;4.450;2023-06-22T01:39:32;20.50;99.90
25937;DHT22;13733;51.178;4.450;2023-06-22T01:41:59;20.50;99.90
25937;DHT22;13733;51.178;4.450;2023-06-22T01:44:26;20.50;99.90
25937;DHT22;13733;51.178;4.450;2023-06-22T01:46:52;20.50;99.90
25937;DHT22;13733;51.178;4.450;2023-06-22T01:49:19;20.50;99.90
25937;DHT22;13733;51.178;4.450;2023-06-22T01:51:46;20.50;99.90
25937;DHT22;13733;51.178;4.450;2023-06-22T01:54:12;20.40;99.90
25937;DHT22;13733;51.178;4.450;2023-06-22T01:56:38;20.40;99.90
25937;DHT22;13733;51.178;4.450;2023-06-22T01:59:08;20.40;99.90
25937;DHT22;13733;51.178;4.450;2023-06-22T02:01:39;20.40;99.90
25937;DHT22;13733;51.178;4.450;2023-06-22T02:04:11;20.50;99.90
25937;DHT22;13733;51.178;4.450;2023-06-22T02:06:39;20.40;99.90
25937;DHT22;13733;51.178;4.450;2023-06-22T02:09:14;20.40;99.90
25937;DHT22;13733;51.178;4.450;2023-06-22T02:11:42;20.30;99.90
25937;DHT22;13733;51.178;4.450;2023-06-22T02:14:09;20.30;99.90
25937;DHT22;13733;51.178;4.450;2023-06-22T02:16:36;20.40;99.90
25937;DHT22;13733;51.178;4.450;2023-06-22T02:19:03;20.30;99.90
25937;DHT22;13733;51.178;4.450;2023-06-22T02:21:29;20.40;99.90
25937;DHT22;13733;51.178;4.450;2023-06-22T02:23:56;20.30;99.90
25937;DHT22;13733;51.178;4.450;2023-06-22T02:26:23;20.30;99.90
25937;DHT22;13733;51.178;4.450;2023-06-22T02:28:49;20.30;99.90
25937;DHT22;13733;51.178;4.450;2023-06-22T02:31:16;20.20;99.90
25937;DHT22;13733;51.178;4.450;2023-06-22T02:33:42;20.10;99.90
25937;DHT22;13733;51.178;4.450;2023-06-22T02:36:09;20.10;99.90
25937;DHT22;13733;51.178;4.450;2023-06-22T02:38:40;20.20;99.90
25937;DHT22;13733;51.178;4.450;2023-06-22T02:41:14;20.20;99.90
25937;DHT22;13733;51.178;4.450;2023-06-22T02:43:47;20.20;99.90
25937;DHT22;13733;51.178;4.450;2023-06-22T02:46:13;20.10;99.90
25937;DHT22;13733;51.178;4.450;2023-06-22T02:48:40;20.10;99.90
25937;DHT22;13733;51.178;4.450;2023-06-22T02:51:06;20.10;99.90
25937;DHT22;13733;51.178;4.450;2023-06-22T02:53:34;20.00;99.90
25937;DHT22;13733;51.178;4.450;2023-06-22T02:56:04;20.10;99.90
25937;DHT22;13733;51.178;4.450;2023-06-22T02:58:36;20.00;99.90
25937;DHT22;13733;51.178;4.450;2023-06-22T03:01:07;20.00;99.90
25937;DHT22;13733;51.178;4.450;2023-06-22T03:03:35;20.00;99.90
25937;DHT22;13733;51.178;4.450;2023-06-22T03:06:00;20.00;99.90
25937;DHT22;13733;51.178;4.450;2023-06-22T03:08:28;19.90;99.90
25937;DHT22;13733;51.178;4.450;2023-06-22T03:10:55;19.80;99.90
25937;DHT22;13733;51.178;4.450;2023-06-22T03:13:20;19.70;99.90
25937;DHT22;13733;51.178;4.450;2023-06-22T03:15:47;19.70;99.90
25937;DHT22;13733;51.178;4.450;2023-06-22T03:18:13;19.70;99.90
25937;DHT22;13733;51.178;4.450;2023-06-22T03:20:38;19.70;99.90
25937;DHT22;13733;51.178;4.450;2023-06-22T03:23:04;19.70;99.90
25937;DHT22;13733;51.178;4.450;2023-06-22T03:25:32;19.70;99.90
25937;DHT22;13733;51.178;4.450;2023-06-22T03:28:00;19.60;99.90
25937;DHT22;13733;51.178;4.450;2023-06-22T03:30:26;19.60;99.90
25937;DHT22;13733;51.178;4.450;2023-06-22T03:32:52;19.60;99.90
25937;DHT22;13733;51.178;4.450;2023-06-22T03:35:18;19.60;99.90
25937;DHT22;13733;51.178;4.450;2023-06-22T03:37:45;19.50;99.90
25937;DHT22;13733;51.178;4.450;2023-06-22T03:40:11;19.60;99.90
25937;DHT22;13733;51.178;4.450;2023-06-22T03:42:37;19.50;99.90
25937;DHT22;13733;51.178;4.450;2023-06-22T03:45:03;19.50;99.90
25937;DHT22;13733;51.178;4.450;2023-06-22T03:47:30;19.40;99.90
25937;DHT22;13733;51.178;4.450;2023-06-22T03:49:57;19.40;99.90
25937;DHT22;13733;51.178;4.450;2023-06-22T03:52:23;19.40;99.90
25937;DHT22;13733;51.178;4.450;2023-06-22T03:54:48;19.40;99.90
25937;DHT22;13733;51.178;4.450;2023-06-22T03:57:14;19.40;99.90
25937;DHT22;13733;51.178;4.450;2023-06-22T03:59:41;19.40;99.90
25937;DHT22;13733;51.178;4.450;2023-06-22T04:02:08;19.50;99.90
25937;DHT22;13733;51.178;4.450;2023-06-22T04:04:34;19.50;99.90
25937;DHT22;13733;51.178;4.450;2023-06-22T04:07:00;19.60;99.90
25937;DHT22;13733;51.178;4.450;2023-06-22T04:09:26;19.50;99.90
25937;DHT22;13733;51.178;4.450;2023-06-22T04:11:52;19.50;99.90
25937;DHT22;13733;51.178;4.450;2023-06-22T04:14:17;19.40;99.90
25937;DHT22;13733;51.178;4.450;2023-06-22T04:16:43;19.30;99.90
25937;DHT22;13733;51.178;4.450;2023-06-22T04:19:09;19.30;99.90
25937;DHT22;13733;51.178;4.450;2023-06-22T04:21:42;19.30;99.90
25937;DHT22;13733;51.178;4.450;2023-06-22T04:24:07;19.30;99.90
25937;DHT22;13733;51.178;4.450;2023-06-22T04:26:33;19.30;99.90
25937;DHT22;13733;51.178;4.450;2023-06-22T04:29:03;19.40;99.90
25937;DHT22;13733;51.178;4.450;2023-06-22T04:31:31;19.50;99.90
25937;DHT22;13733;51.178;4.450;2023-06-22T04:33:58;19.50;99.90
25937;DHT22;13733;51.178;4.450;2023-06-22T04:36:35;19.50;99.90
25937;DHT22;13733;51.178;4.450;2023-06-22T04:39:12;19.50;99.90
25937;DHT22;13733;51.178;4.450;2023-06-22T04:41:39;19.50;99.90
25937;DHT22;13733;51.178;4.450;2023-06-22T04:44:13;19.50;99.90
25937;DHT22;13733;51.178;4.450;2023-06-22T04:46:40;19.50;99.90
25937;DHT22;13733;51.178;4.450;2023-06-22T04:49:07;19.60;99.90
25937;DHT22;13733;51.178;4.450;2023-06-22T04:51:42;19.70;99.90
25937;DHT22;13733;51.178;4.450;2023-06-22T04:54:09;19.70;99.90
25937;DHT22;13733;51.178;4.450;2023-06-22T04:56:35;19.60;99.90
25937;DHT22;13733;51.178;4.450;2023-06-22T04:59:01;19.70;99.90
25937;DHT22;13733;51.178;4.450;2023-06-22T05:01:27;19.70;99.90
25937;DHT22;13733;51.178;4.450;2023-06-22T05:03:52;19.70;99.90
25937;DHT22;13733;51.178;4.450;2023-06-22T05:06:24;19.70;99.90
25937;DHT22;13733;51.178;4.450;2023-06-22T05:08:54;19.80;99.90
25937;DHT22;13733;51.178;4.450;2023-06-22T05:11:29;19.90;99.90
25937;DHT22;13733;51.178;4.450;2023-06-22T05:13:55;20.00;99.90
25937;DHT22;13733;51.178;4.450;2023-06-22T05:16:21;20.20;99.90
25937;DHT22;13733;51.178;4.450;2023-06-22T05:18:52;20.30;99.90
25937;DHT22;13733;51.178;4.450;2023-06-22T05:21:22;20.60;99.90
25937;DHT22;13733;51.178;4.450;2023-06-22T05:23:48;20.80;99.90
25937;DHT22;13733;51.178;4.450;2023-06-22T05:26:14;21.00;99.90
25937;DHT22;13733;51.178;4.450;2023-06-22T05:28:40;21.20;99.90
25937;DHT22;13733;51.178;4.450;2023-06-22T05:31:06;21.40;99.90
25937;DHT22;13733;51.178;4.450;2023-06-22T05:33:32;21.50;99.90
25937;DHT22;13733;51.178;4.450;2023-06-22T05:35:57;21.60;99.90
25937;DHT22;13733;51.178;4.450;2023-06-22T05:38:23;21.70;99.90
25937;DHT22;13733;51.178;4.450;2023-06-22T05:40:49;21.80;99.90
25937;DHT22;13733;51.178;4.450;2023-06-22T05:43:15;21.90;99.90
25937;DHT22;13733;51.178;4.450;2023-06-22T05:45:41;22.10;99.90
25937;DHT22;13733;51.178;4.450;2023-06-22T05:48:06;22.20;99.90
25937;DHT22;13733;51.178;4.450;2023-06-22T05:50:32;22.30;99.90
25937;DHT22;13733;51.178;4.450;2023-06-22T05:52:58;22.30;99.90
25937;DHT22;13733;51.178;4.450;2023-06-22T05:55:24;22.30;99.90
25937;DHT22;13733;51.178;4.450;2023-06-22T05:57:49;22.30;99.90
25937;DHT22;13733;51.178;4.450;2023-06-22T06:00:15;22.40;99.90
25937;DHT22;13733;51.178;4.450;2023-06-22T06:02:41;22.40;99.90
25937;DHT22;13733;51.178;4.450;2023-06-22T06:05:12;22.60;99.90
25937;DHT22;13733;51.178;4.450;2023-06-22T06:07:41;22.70;99.90
25937;DHT22;13733;51.178;4.450;2023-06-22T06:10:07;22.80;99.90
25937;DHT22;13733;51.178;4.450;2023-06-22T06:12:33;23.00;99.90
25937;DHT22;13733;51.178;4.450;2023-06-22T06:15:00;23.10;99.90
25937;DHT22;13733;51.178;4.450;2023-06-22T06:17:25;23.10;99.90
25937;DHT22;13733;51.178;4.450;2023-06-22T06:19:51;23.10;99.90
25937;DHT22;13733;51.178;4.450;2023-06-22T06:22:17;23.30;99.90
25937;DHT22;13733;51.178;4.450;2023-06-22T06:24:44;23.30;99.90
25937;DHT22;13733;51.178;4.450;2023-06-22T06:27:09;23.30;99.90
25937;DHT22;13733;51.178;4.450;2023-06-22T06:29:35;23.30;99.90
25937;DHT22;13733;51.178;4.450;2023-06-22T06:32:02;23.20;99.90
25937;DHT22;13733;51.178;4.450;2023-06-22T06:34:28;23.20;99.90
25937;DHT22;13733;51.178;4.450;2023-06-22T06:36:53;23.20;99.90
25937;DHT22;13733;51.178;4.450;2023-06-22T06:39:19;23.30;99.90
25937;DHT22;13733;51.178;4.450;2023-06-22T06:41:47;23.40;99.90
25937;DHT22;13733;51.178;4.450;2023-06-22T06:44:14;23.50;99.90
25937;DHT22;13733;51.178;4.450;2023-06-22T06:46:40;23.50;99.90
25937;DHT22;13733;51.178;4.450;2023-06-22T06:49:07;23.60;99.90
25937;DHT22;13733;51.178;4.450;2023-06-22T06:51:33;23.60;99.90
25937;DHT22;13733;51.178;4.450;2023-06-22T06:53:58;23.60;99.90
25937;DHT22;13733;51.178;4.450;2023-06-22T06:56:24;23.80;99.90
25937;DHT22;13733;51.178;4.450;2023-06-22T06:58:50;23.80;99.90
25937;DHT22;13733;51.178;4.450;2023-06-22T07:01:16;23.70;99.90
25937;DHT22;13733;51.178;4.450;2023-06-22T07:03:42;23.60;99.90
25937;DHT22;13733;51.178;4.450;2023-06-22T07:06:09;23.60;99.90
25937;DHT22;13733;51.178;4.450;2023-06-22T07:08:34;23.70;99.90
25937;DHT22;13733;51.178;4.450;2023-06-22T07:11:05;23.80;99.90
25937;DHT22;13733;51.178;4.450;2023-06-22T07:13:31;23.90;99.90
25937;DHT22;13733;51.178;4.450;2023-06-22T07:15:56;23.90;99.90
25937;DHT22;13733;51.178;4.450;2023-06-22T07:18:23;24.00;99.90
25937;DHT22;13733;51.178;4.450;2023-06-22T07:20:49;24.10;99.90
25937;DHT22;13733;51.178;4.450;2023-06-22T07:23:15;24.10;99.90
25937;DHT22;13733;51.178;4.450;2023-06-22T07:25:41;23.90;99.90
25937;DHT22;13733;51.178;4.450;2023-06-22T07:28:07;23.80;99.90
25937;DHT22;13733;51.178;4.450;2023-06-22T07:30:34;23.80;99.90
25937;DHT22;13733;51.178;4.450;2023-06-22T07:33:00;23.90;99.90
25937;DHT22;13733;51.178;4.450;2023-06-22T07:35:32;23.80;99.90
25937;DHT22;13733;51.178;4.450;2023-06-22T07:37:58;23.90;99.90
25937;DHT22;13733;51.178;4.450;2023-06-22T07:40:24;24.00;99.90
25937;DHT22;13733;51.178;4.450;2023-06-22T07:42:50;24.10;99.90
25937;DHT22;13733;51.178;4.450;2023-06-22T07:45:18;24.00;99.90
25937;DHT22;13733;51.178;4.450;2023-06-22T07:47:44;24.10;99.90
25937;DHT22;13733;51.178;4.450;2023-06-22T07:50:10;24.00;99.90
25937;DHT22;13733;51.178;4.450;2023-06-22T07:52:36;24.00;99.90
25937;DHT22;13733;51.178;4.450;2023-06-22T07:55:02;23.90;99.90
25937;DHT22;13733;51.178;4.450;2023-06-22T07:57:28;24.00;99.90
25937;DHT22;13733;51.178;4.450;2023-06-22T08:00:00;23.90;99.90
25937;DHT22;13733;51.178;4.450;2023-06-22T08:02:26;24.00;99.90
25937;DHT22;13733;51.178;4.450;2023-06-22T08:04:52;24.00;99.90
25937;DHT22;13733;51.178;4.450;2023-06-22T08:07:18;23.90;99.90
25937;DHT22;13733;51.178;4.450;2023-06-22T08:09:48;23.80;99.90
25937;DHT22;13733;51.178;4.450;2023-06-22T08:12:15;23.80;99.90
25937;DHT22;13733;51.178;4.450;2023-06-22T08:14:42;23.80;99.90
25937;DHT22;13733;51.178;4.450;2023-06-22T08:17:09;23.90;99.90
25937;DHT22;13733;51.178;4.450;2023-06-22T08:19:37;23.80;99.90
25937;DHT22;13733;51.178;4.450;2023-06-22T08:22:03;23.70;99.90
25937;DHT22;13733;51.178;4.450;2023-06-22T08:24:28;23.70;99.90
25937;DHT22;13733;51.178;4.450;2023-06-22T08:26:56;23.80;99.90
25937;DHT22;13733;51.178;4.450;2023-06-22T08:29:22;23.90;99.90
25937;DHT22;13733;51.178;4.450;2023-06-22T08:31:47;24.00;99.90
25937;DHT22;13733;51.178;4.450;2023-06-22T08:34:13;24.00;99.90
25937;DHT22;13733;51.178;4.450;2023-06-22T08:36:39;24.00;99.90
25937;DHT22;13733;51.178;4.450;2023-06-22T08:39:19;24.00;99.90
25937;DHT22;13733;51.178;4.450;2023-06-22T08:41:46;23.80;99.90
25937;DHT22;13733;51.178;4.450;2023-06-22T08:44:12;23.90;99.90
25937;DHT22;13733;51.178;4.450;2023-06-22T08:46:38;23.90;99.90
25937;DHT22;13733;51.178;4.450;2023-06-22T08:49:06;24.00;99.90
25937;DHT22;13733;51.178;4.450;2023-06-22T08:51:32;24.00;99.90
25937;DHT22;13733;51.178;4.450;2023-06-22T08:53:58;24.00;99.90
25937;DHT22;13733;51.178;4.450;2023-06-22T08:56:23;24.00;99.90
25937;DHT22;13733;51.178;4.450;2023-06-22T08:58:49;24.10;99.90
25937;DHT22;13733;51.178;4.450;2023-06-22T09:01:15;24.10;99.90
25937;DHT22;13733;51.178;4.450;2023-06-22T09:03:41;24.00;99.90
25937;DHT22;13733;51.178;4.450;2023-06-22T09:06:07;24.00;99.90
25937;DHT22;13733;51.178;4.450;2023-06-22T09:08:35;24.00;99.90
25937;DHT22;13733;51.178;4.450;2023-06-22T09:11:01;24.00;99.90
25937;DHT22;13733;51.178;4.450;2023-06-22T09:13:30;24.00;99.90
25937;DHT22;13733;51.178;4.450;2023-06-22T09:15:56;24.00;99.90
25937;DHT22;13733;51.178;4.450;2023-06-22T09:18:21;24.10;99.90
25937;DHT22;13733;51.178;4.450;2023-06-22T09:20:47;24.10;99.90
25937;DHT22;13733;51.178;4.450;2023-06-22T09:23:13;24.10;99.90
25937;DHT22;13733;51.178;4.450;2023-06-22T09:25:40;24.00;99.90
25937;DHT22;13733;51.178;4.450;2023-06-22T09:28:06;23.80;99.90
25937;DHT22;13733;51.178;4.450;2023-06-22T09:30:32;23.80;99.90
25937;DHT22;13733;51.178;4.450;2023-06-22T09:32:57;23.90;99.90
25937;DHT22;13733;51.178;4.450;2023-06-22T09:35:23;23.90;99.90
25937;DHT22;13733;51.178;4.450;2023-06-22T09:37:49;24.00;99.90
25937;DHT22;13733;51.178;4.450;2023-06-22T09:40:14;23.90;99.90
25937;DHT22;13733;51.178;4.450;2023-06-22T09:42:42;24.00;99.90
25937;DHT22;13733;51.178;4.450;2023-06-22T09:45:08;24.10;99.90
25937;DHT22;13733;51.178;4.450;2023-06-22T09:47:34;24.10;99.90
25937;DHT22;13733;51.178;4.450;2023-06-22T09:50:00;24.20;99.90
25937;DHT22;13733;51.178;4.450;2023-06-22T09:52:26;24.20;99.90
25937;DHT22;13733;51.178;4.450;2023-06-22T09:54:52;24.20;99.90
25937;DHT22;13733;51.178;4.450;2023-06-22T09:57:17;24.20;99.90
25937;DHT22;13733;51.178;4.450;2023-06-22T09:59:43;24.20;99.90
25937;DHT22;13733;51.178;4.450;2023-06-22T10:02:09;24.10;99.90
25937;DHT22;13733;51.178;4.450;2023-06-22T10:04:35;24.00;99.90
25937;DHT22;13733;51.178;4.450;2023-06-22T10:07:01;24.00;99.90
25937;DHT22;13733;51.178;4.450;2023-06-22T10:09:28;24.10;99.90
25937;DHT22;13733;51.178;4.450;2023-06-22T10:11:54;24.00;99.90
25937;DHT22;13733;51.178;4.450;2023-06-22T10:14:20;23.90;99.90
25937;DHT22;13733;51.178;4.450;2023-06-22T10:16:45;23.90;99.90
25937;DHT22;13733;51.178;4.450;2023-06-22T10:19:11;23.90;99.90
25937;DHT22;13733;51.178;4.450;2023-06-22T10:21:37;23.90;99.90
25937;DHT22;13733;51.178;4.450;2023-06-22T10:24:03;23.80;99.90
25937;DHT22;13733;51.178;4.450;2023-06-22T10:26:35;23.80;99.90
25937;DHT22;13733;51.178;4.450;2023-06-22T10:29:01;23.70;99.90
25937;DHT22;13733;51.178;4.450;2023-06-22T10:31:27;23.70;99.90
25937;DHT22;13733;51.178;4.450;2023-06-22T10:33:54;23.70;99.90
25937;DHT22;13733;51.178;4.450;2023-06-22T10:36:21;23.70;99.90
25937;DHT22;13733;51.178;4.450;2023-06-22T10:38:48;23.50;99.90
25937;DHT22;13733;51.178;4.450;2023-06-22T10:41:14;23.50;99.90
25937;DHT22;13733;51.178;4.450;2023-06-22T10:43:40;23.50;99.90
25937;DHT22;13733;51.178;4.450;2023-06-22T10:46:06;23.40;99.90
25937;DHT22;13733;51.178;4.450;2023-06-22T10:48:32;23.40;99.90
25937;DHT22;13733;51.178;4.450;2023-06-22T10:50:58;23.30;99.90
25937;DHT22;13733;51.178;4.450;2023-06-22T10:53:24;23.30;99.90
25937;DHT22;13733;51.178;4.450;2023-06-22T10:55:49;23.20;99.90
25937;DHT22;13733;51.178;4.450;2023-06-22T10:58:18;23.10;99.90
25937;DHT22;13733;51.178;4.450;2023-06-22T11:00:44;23.10;99.90
25937;DHT22;13733;51.178;4.450;2023-06-22T11:03:10;23.10;99.90
25937;DHT22;13733;51.178;4.450;2023-06-22T11:05:36;23.00;99.90
25937;DHT22;13733;51.178;4.450;2023-06-22T11:08:02;23.00;99.90
25937;DHT22;13733;51.178;4.450;2023-06-22T11:10:28;23.00;99.90
25937;DHT22;13733;51.178;4.450;2023-06-22T11:12:53;23.00;99.90
25937;DHT22;13733;51.178;4.450;2023-06-22T11:15:21;23.00;99.90
25937;DHT22;13733;51.178;4.450;2023-06-22T11:17:46;23.00;99.90
25937;DHT22;13733;51.178;4.450;2023-06-22T11:20:12;22.80;99.90
25937;DHT22;13733;51.178;4.450;2023-06-22T11:22:40;22.80;99.90
25937;DHT22;13733;51.178;4.450;2023-06-22T11:25:07;22.80;99.90
25937;DHT22;13733;51.178;4.450;2023-06-22T11:27:33;22.70;99.90
25937;DHT22;13733;51.178;4.450;2023-06-22T11:29:59;22.70;99.90
25937;DHT22;13733;51.178;4.450;2023-06-22T11:32:24;22.80;99.90
25937;DHT22;13733;51.178;4.450;2023-06-22T11:34:50;22.80;99.90
25937;DHT22;13733;51.178;4.450;2023-06-22T11:37:16;22.90;99.90
25937;DHT22;13733;51.178;4.450;2023-06-22T11:39:42;22.90;99.90
25937;DHT22;13733;51.178;4.450;2023-06-22T11:42:09;23.00;99.90
25937;DHT22;13733;51.178;4.450;2023-06-22T11:44:35;23.00;99.90
25937;DHT22;13733;51.178;4.450;2023-06-22T11:47:00;23.00;99.90
25937;DHT22;13733;51.178;4.450;2023-06-22T11:49:30;23.00;99.90
25937;DHT22;13733;51.178;4.450;2023-06-22T11:51:56;22.90;99.90
25937;DHT22;13733;51.178;4.450;2023-06-22T11:54:22;22.90;99.90
25937;DHT22;13733;51.178;4.450;2023-06-22T11:56:47;22.80;99.90
25937;DHT22;13733;51.178;4.450;2023-06-22T11:59:13;22.80;99.90
25937;DHT22;13733;51.178;4.450;2023-06-22T12:01:39;22.80;99.90
25937;DHT22;13733;51.178;4.450;2023-06-22T12:04:05;22.80;99.90
25937;DHT22;13733;51.178;4.450;2023-06-22T12:06:36;22.80;99.90
25937;DHT22;13733;51.178;4.450;2023-06-22T12:09:04;22.60;99.90
25937;DHT22;13733;51.178;4.450;2023-06-22T12:11:30;22.40;99.90
25937;DHT22;13733;51.178;4.450;2023-06-22T12:13:56;22.30;99.90
25937;DHT22;13733;51.178;4.450;2023-06-22T12:16:23;22.20;99.90
25937;DHT22;13733;51.178;4.450;2023-06-22T12:18:50;22.20;99.90
25937;DHT22;13733;51.178;4.450;2023-06-22T12:21:15;22.20;99.90
25937;DHT22;13733;51.178;4.450;2023-06-22T12:23:41;21.90;99.90
25937;DHT22;13733;51.178;4.450;2023-06-22T12:26:07;21.50;99.90
25937;DHT22;13733;51.178;4.450;2023-06-22T12:28:33;21.30;99.90
25937;DHT22;13733;51.178;4.450;2023-06-22T12:30:58;21.30;99.90
25937;DHT22;13733;51.178;4.450;2023-06-22T12:33:24;21.30;99.90
25937;DHT22;13733;51.178;4.450;2023-06-22T12:35:50;21.10;99.90
25937;DHT22;13733;51.178;4.450;2023-06-22T12:38:15;20.90;99.90
25937;DHT22;13733;51.178;4.450;2023-06-22T12:40:41;21.00;99.90
25937;DHT22;13733;51.178;4.450;2023-06-22T12:43:07;21.00;99.90
25937;DHT22;13733;51.178;4.450;2023-06-22T12:45:35;21.00;99.90
25937;DHT22;13733;51.178;4.450;2023-06-22T12:48:01;21.00;99.90
25937;DHT22;13733;51.178;4.450;2023-06-22T12:50:27;21.00;99.90
25937;DHT22;13733;51.178;4.450;2023-06-22T12:52:52;21.00;99.90
25937;DHT22;13733;51.178;4.450;2023-06-22T12:55:18;21.10;99.90
25937;DHT22;13733;51.178;4.450;2023-06-22T12:57:44;21.20;99.90
25937;DHT22;13733;51.178;4.450;2023-06-22T13:00:10;21.30;99.90
25937;DHT22;13733;51.178;4.450;2023-06-22T13:02:37;21.30;99.90
25937;DHT22;13733;51.178;4.450;2023-06-22T13:05:03;21.20;99.90
25937;DHT22;13733;51.178;4.450;2023-06-22T13:07:30;21.30;99.90
25937;DHT22;13733;51.178;4.450;2023-06-22T13:09:56;21.30;99.90
25937;DHT22;13733;51.178;4.450;2023-06-22T13:12:22;21.20;99.90
25937;DHT22;13733;51.178;4.450;2023-06-22T13:14:48;21.20;99.90
25937;DHT22;13733;51.178;4.450;2023-06-22T13:17:14;21.20;99.90
25937;DHT22;13733;51.178;4.450;2023-06-22T13:19:40;21.20;99.90
25937;DHT22;13733;51.178;4.450;2023-06-22T13:22:31;21.20;99.90
25937;DHT22;13733;51.178;4.450;2023-06-22T13:24:58;21.20;99.90
25937;DHT22;13733;51.178;4.450;2023-06-22T13:27:24;21.20;99.90
25937;DHT22;13733;51.178;4.450;2023-06-22T13:29:51;21.10;99.90
25937;DHT22;13733;51.178;4.450;2023-06-22T13:32:17;21.20;99.90
25937;DHT22;13733;51.178;4.450;2023-06-22T13:34:43;21.10;99.90
25937;DHT22;13733;51.178;4.450;2023-06-22T13:37:09;21.00;99.90
25937;DHT22;13733;51.178;4.450;2023-06-22T13:39:36;21.00;99.90
25937;DHT22;13733;51.178;4.450;2023-06-22T13:42:01;21.00;99.90
25937;DHT22;13733;51.178;4.450;2023-06-22T13:44:27;21.00;99.90
25937;DHT22;13733;51.178;4.450;2023-06-22T13:46:57;21.00;99.90
25937;DHT22;13733;51.178;4.450;2023-06-22T13:49:23;21.00;99.90
25937;DHT22;13733;51.178;4.450;2023-06-22T13:51:49;21.00;99.90
25937;DHT22;13733;51.178;4.450;2023-06-22T13:54:16;21.00;99.90
25937;DHT22;13733;51.178;4.450;2023-06-22T13:56:42;21.00;99.90
25937;DHT22;13733;51.178;4.450;2023-06-22T13:59:07;21.00;99.90
25937;DHT22;13733;51.178;4.450;2023-06-22T14:01:37;20.90;99.90
25937;DHT22;13733;51.178;4.450;2023-06-22T14:04:05;20.90;99.90
25937;DHT22;13733;51.178;4.450;2023-06-22T14:06:31;21.10;99.90
25937;DHT22;13733;51.178;4.450;2023-06-22T14:08:57;21.00;99.90
25937;DHT22;13733;51.178;4.450;2023-06-22T14:11:22;21.00;99.90
25937;DHT22;13733;51.178;4.450;2023-06-22T14:13:48;21.10;99.90
25937;DHT22;13733;51.178;4.450;2023-06-22T14:16:14;21.10;99.90
25937;DHT22;13733;51.178;4.450;2023-06-22T14:18:39;21.10;99.90
25937;DHT22;13733;51.178;4.450;2023-06-22T14:21:05;21.10;99.90
25937;DHT22;13733;51.178;4.450;2023-06-22T14:23:31;21.10;99.90
25937;DHT22;13733;51.178;4.450;2023-06-22T14:25:57;21.10;99.90
25937;DHT22;13733;51.178;4.450;2023-06-22T14:28:22;21.10;99.90
25937;DHT22;13733;51.178;4.450;2023-06-22T14:30:48;21.00;99.90
25937;DHT22;13733;51.178;4.450;2023-06-22T14:33:14;21.00;99.90
25937;DHT22;13733;51.178;4.450;2023-06-22T14:35:41;21.10;99.90
25937;DHT22;13733;51.178;4.450;2023-06-22T14:38:06;21.10;99.90
25937;DHT22;13733;51.178;4.450;2023-06-22T14:40:32;21.10;99.90
25937;DHT22;13733;51.178;4.450;2023-06-22T14:42:58;21.20;99.90
25937;DHT22;13733;51.178;4.450;2023-06-22T14:45:24;21.20;99.90
25937;DHT22;13733;51.178;4.450;2023-06-22T14:47:50;21.20;99.90
25937;DHT22;13733;51.178;4.450;2023-06-22T14:50:16;21.40;99.90
25937;DHT22;13733;51.178;4.450;2023-06-22T14:52:41;21.40;99.90
25937;DHT22;13733;51.178;4.450;2023-06-22T14:55:07;21.50;99.90
25937;DHT22;13733;51.178;4.450;2023-06-22T14:57:34;21.40;99.90
25937;DHT22;13733;51.178;4.450;2023-06-22T15:00:00;21.50;99.90
25937;DHT22;13733;51.178;4.450;2023-06-22T15:02:27;21.50;99.90
25937;DHT22;13733;51.178;4.450;2023-06-22T15:04:53;21.60;99.90
25937;DHT22;13733;51.178;4.450;2023-06-22T15:07:19;21.60;99.90
25937;DHT22;13733;51.178;4.450;2023-06-22T15:09:45;21.60;99.90
25937;DHT22;13733;51.178;4.450;2023-06-22T15:12:11;21.60;99.90
25937;DHT22;13733;51.178;4.450;2023-06-22T15:14:40;21.60;99.90
25937;DHT22;13733;51.178;4.450;2023-06-22T15:17:07;21.60;99.90
25937;DHT22;13733;51.178;4.450;2023-06-22T15:19:36;21.70;99.90
25937;DHT22;13733;51.178;4.450;2023-06-22T15:22:04;21.70;99.90
25937;DHT22;13733;51.178;4.450;2023-06-22T15:24:32;21.60;99.90
25937;DHT22;13733;51.178;4.450;2023-06-22T15:26:58;21.60;99.90
25937;DHT22;13733;51.178;4.450;2023-06-22T15:29:24;21.60;99.90
25937;DHT22;13733;51.178;4.450;2023-06-22T15:31:51;21.50;99.90
25937;DHT22;13733;51.178;4.450;2023-06-22T15:34:16;21.50;99.90